Rio Rancho, NM

11:44 PM MST on January 31, 2015 (GMT -0700)
Belen | Change Station
CLOSE
Current Station
Airport
Location: Belen,
Elevation: 5194 ft
Nearby Weather Stations

Elev 5194 ft 34.65 °N, 106.83 °W | Updated 29 minutes ago

Partly Cloudy
Partly Cloudy
37 °F
Feels Like 32 °F
N
7
Wind Variable Wind from NNE

Today
High -- | Low -- °F
--% Chance of Precip.
Yesterday
High -- | Low -- °F
Precip. -- in
7:06 AM 5:33 PM
Waxing Gibbous, 93% visible
Pressure 29.98 in
Visibility 10.0 miles
Clouds Overcast 1900 ft
Windchill 32 °F
Dew Point 37 °F
Humidity 100%
Rainfall 0.10 in
Snow Depth Not available.
UV 0 out of 12
Pollen .50 out of 12
Air Quality Not available.
Flu Activity Not available.
METAR KE80 010615Z AUTO 02006KT 10SM OVC019 03/03 A2998 RMK AO2 T00300030

More Conditions Fewer Conditions

Pressure 29.98 in
Visibility 10.0 miles
Clouds Overcast 1900 ft
Windchill 32 °F
Dew Point 37 °F
Humidity 100%
Rainfall 0.10 in
Snow Depth Not available.
UV 0 out of 12
Pollen .50 out of 12
Air Quality Not available.
Flu Activity Not available.
METAR KE80 010615Z AUTO 02006KT 10SM OVC019 03/03 A2998 RMK AO2 T00300030

More Conditions Fewer Conditions

Nowcast | as of 11:33 PM MST on January 31, 2015

A few light rain and snow showers may linger over portions of north central New Mexico...especially the higher terrain...through 2 am. Any additional snow accumulation should be insignificant. Otherwise...areas of fog may expand overnight...with some localized dense fog reducing visibilities to a half mile or less at times...especially in the wettest or most significantly snow covered locales...including the Santa Fe Metro and Taos vicinity. For the latest Road conditions visit N M roads dot com or dial 5 1 1.

×

10-Day Weather Forecast

Almanac

Astronomy

Jan. 31, 2015 Rise Set
Actual Time
Civil Twilight
Nautical Twilight
Astronomical Twilight
Moon
Length of Visible Light
Length of Day
Tomorrow will be .
, % of the Moon is Illuminated

Today's Extremes

State Highs State Lows

Community

WunderPhotos

Upload Photos

1,792,324 photos uploaded!

WunderBlogs® & News

Nearby

Air Quality

  Air Quality AQ Index Pollutant
Not available.

Snow Depth

Station Depth Elevation

Earthquake Activity

City Distance Mag. Time & Date
Minimum magnitude displayed is 2.5.

Coastal Water Temperatures

Place Temperature

Nearby Weather Stations